Time;durP1;ratioP1;P1;durP2;ratioP2;P2;SDS_P1;SDS_P2;PMS_P1;PMS_P2;Temp;Humidity;BMP_temperature;BMP_pressure;BME280_temperature;BME280_humidity;BME280_pressure;Samples;Min_cycle;Max_cycle;Signal;HPM_P1;HPM_P2
2022/07/23 00:02:23;;;;;;;7.07;6.33;;;19.60;99.90;;;;;;5053299;28;20452;-76
2022/07/23 00:04:49;;;;;;;7.13;6.40;;;19.40;99.90;;;;;;5053388;28;20450;-77
2022/07/23 00:07:16;;;;;;;8.07;7.37;;;19.40;99.90;;;;;;5053426;28;20449;-77
2022/07/23 00:09:44;;;;;;;7.97;7.13;;;19.30;99.90;;;;;;5052825;28;20543;-76
2022/07/23 00:12:11;;;;;;;8.33;7.50;;;19.20;99.90;;;;;;5053084;28;20423;-76
2022/07/23 00:14:38;;;;;;;7.57;6.87;;;19.10;99.90;;;;;;5053747;28;20798;-76
2022/07/23 00:17:04;;;;;;;8.00;6.23;;;19.10;99.90;;;;;;5053117;28;20449;-76
2022/07/23 00:19:31;;;;;;;7.13;5.57;;;19.10;99.90;;;;;;5053259;28;20493;-76
2022/07/23 00:21:58;;;;;;;7.70;6.90;;;19.00;99.90;;;;;;5053062;28;20907;-77
2022/07/23 00:24:25;;;;;;;7.53;6.83;;;19.00;99.90;;;;;;5053053;28;20798;-76
2022/07/23 00:26:53;;;;;;;8.63;7.73;;;18.90;99.90;;;;;;5053086;28;20446;-77
2022/07/23 00:29:20;;;;;;;8.10;6.33;;;18.90;99.90;;;;;;5053146;28;20453;-76
2022/07/23 00:31:47;;;;;;;8.93;6.63;;;18.90;99.90;;;;;;5053146;28;20446;-76
2022/07/23 00:34:13;;;;;;;7.73;7.03;;;18.90;99.90;;;;;;5053501;28;20529;-76
2022/07/23 00:36:41;;;;;;;7.80;7.10;;;19.00;99.90;;;;;;5052695;28;20492;-76
2022/07/23 00:39:08;;;;;;;9.70;7.57;;;19.00;99.90;;;;;;5052926;28;20460;-77
2022/07/23 00:41:34;;;;;;;9.30;7.03;;;19.10;99.90;;;;;;5052569;28;20956;-77
2022/07/23 00:44:17;;;;;;;8.23;7.50;;;18.90;99.90;;;;;;5052669;28;20449;-77
2022/07/23 00:46:47;;;;;;;7.83;7.10;;;18.90;99.90;;;;;;5053041;28;20425;-76
2022/07/23 00:49:13;;;;;;;7.40;6.70;;;18.70;99.90;;;;;;5052439;28;20453;-76
2022/07/23 00:51:40;;;;;;;12.20;6.70;;;18.70;99.90;;;;;;5052560;28;20457;-76
2022/07/23 00:54:07;;;;;;;7.13;6.53;;;18.80;99.90;;;;;;5053052;28;20584;-76
2022/07/23 00:56:34;;;;;;;7.73;6.97;;;18.80;99.90;;;;;;5052756;28;20453;-76
2022/07/23 00:59:01;;;;;;;9.67;8.20;;;18.80;99.90;;;;;;5052433;28;20446;-76
2022/07/23 01:01:29;;;;;;;12.20;7.90;;;18.80;99.90;;;;;;5052566;28;20493;-76
2022/07/23 01:03:56;;;;;;;10.93;9.80;;;18.80;99.90;;;;;;5052733;28;20449;-76
2022/07/23 01:06:23;;;;;;;8.87;8.07;;;18.80;99.90;;;;;;5052511;28;20944;-77
2022/07/23 01:08:50;;;;;;;9.53;7.50;;;18.80;99.90;;;;;;5052676;28;20820;-76
2022/07/23 01:11:17;;;;;;;7.37;6.67;;;18.90;99.90;;;;;;5052289;28;20991;-76
2022/07/23 01:13:44;;;;;;;7.77;7.07;;;19.00;99.90;;;;;;5052200;28;20486;-77
2022/07/23 01:16:11;;;;;;;8.20;7.40;;;19.00;99.90;;;;;;5052555;28;20504;-76
2022/07/23 01:18:39;;;;;;;6.63;6.03;;;18.90;99.90;;;;;;5052417;28;20450;-76
2022/07/23 01:21:06;;;;;;;7.37;6.70;;;18.90;99.90;;;;;;5055032;28;20480;-76
2022/07/23 01:23:34;;;;;;;9.37;7.30;;;18.90;99.90;;;;;;5056475;28;20450;-76
2022/07/23 01:26:01;;;;;;;22.63;15.30;;;18.80;99.90;;;;;;5056459;28;20449;-76
2022/07/23 01:28:28;;;;;;;9.10;8.20;;;18.80;99.90;;;;;;5056932;28;20567;-76
2022/07/23 01:30:55;;;;;;;7.97;7.27;;;18.70;99.90;;;;;;5056107;28;20560;-78
2022/07/23 01:33:21;;;;;;;7.93;7.17;;;18.60;99.90;;;;;;5056299;28;20509;-76
2022/07/23 01:35:48;;;;;;;10.57;7.43;;;18.60;99.90;;;;;;5058087;28;20476;-75
2022/07/23 01:38:15;;;;;;;7.07;6.47;;;18.50;99.90;;;;;;5059442;28;20449;-75
2022/07/23 01:40:43;;;;;;;7.27;6.67;;;18.40;99.90;;;;;;5060147;28;20462;-75
2022/07/23 01:43:10;;;;;;;10.03;7.10;;;18.50;99.90;;;;;;5056017;28;20449;-75
2022/07/23 01:45:36;;;;;;;9.50;7.10;;;18.50;99.90;;;;;;5056167;28;20820;-75
2022/07/23 01:48:03;;;;;;;7.70;6.90;;;18.50;99.90;;;;;;5056226;28;20472;-76
2022/07/23 01:50:30;;;;;;;8.50;6.40;;;18.50;99.90;;;;;;5056225;28;20527;-75
2022/07/23 01:52:57;;;;;;;9.23;6.80;;;18.60;99.90;;;;;;5056397;28;20804;-75
2022/07/23 01:55:23;;;;;;;9.30;7.70;;;18.60;99.90;;;;;;5055718;28;20452;-76
2022/07/23 01:57:51;;;;;;;10.73;6.60;;;18.60;99.90;;;;;;5056047;28;20460;-76
2022/07/23 02:00:18;;;;;;;9.00;7.00;;;18.60;99.90;;;;;;5055781;28;20470;-76
2022/07/23 02:02:45;;;;;;;7.93;7.30;;;18.60;99.90;;;;;;5055678;28;20449;-77
2022/07/23 02:05:12;;;;;;;8.70;6.77;;;18.60;99.90;;;;;;5055954;28;20468;-77
2022/07/23 02:07:39;;;;;;;7.90;7.00;;;18.50;99.90;;;;;;5055381;28;20450;-76
2022/07/23 02:10:07;;;;;;;8.20;7.27;;;18.50;99.90;;;;;;5055416;28;20477;-76
2022/07/23 02:12:33;;;;;;;8.90;7.07;;;18.40;99.90;;;;;;5056374;28;20456;-76
2022/07/23 02:15:01;;;;;;;9.33;7.60;;;18.40;99.90;;;;;;5055480;28;20456;-76
2022/07/23 02:17:28;;;;;;;8.73;7.60;;;18.40;99.90;;;;;;5055359;28;20445;-76
2022/07/23 02:19:55;;;;;;;9.40;8.50;;;18.40;99.90;;;;;;5055163;28;20477;-76
2022/07/23 02:22:21;;;;;;;8.87;8.00;;;18.40;99.90;;;;;;5055103;28;20441;-76
2022/07/23 02:24:48;;;;;;;8.03;7.33;;;18.40;99.90;;;;;;5055015;28;20474;-76
2022/07/23 02:27:15;;;;;;;8.10;7.30;;;18.40;99.90;;;;;;5055425;28;20446;-76
2022/07/23 02:29:42;;;;;;;8.00;7.30;;;18.40;99.90;;;;;;5055519;28;20469;-76
2022/07/23 02:32:10;;;;;;;7.60;7.00;;;18.40;99.90;;;;;;5054857;28;20458;-76
2022/07/23 02:34:36;;;;;;;9.33;7.87;;;18.40;99.90;;;;;;5054893;28;20449;-76
2022/07/23 02:37:03;;;;;;;9.77;8.40;;;18.40;99.90;;;;;;5055905;28;20442;-76
2022/07/23 02:39:30;;;;;;;8.73;7.93;;;18.40;99.90;;;;;;5054969;28;20474;-76
2022/07/23 02:41:57;;;;;;;14.20;7.97;;;18.40;99.90;;;;;;5055156;28;20446;-76
2022/07/23 02:44:23;;;;;;;8.43;7.60;;;18.30;99.90;;;;;;5054894;28;20874;-76
2022/07/23 02:46:50;;;;;;;9.57;7.43;;;18.30;99.90;;;;;;5055137;28;20450;-76
2022/07/23 02:49:18;;;;;;;8.03;7.03;;;18.00;99.90;;;;;;5055180;28;20441;-76
2022/07/23 02:51:45;;;;;;;8.57;7.77;;;18.40;99.90;;;;;;5054754;28;20453;-76
2022/07/23 02:54:11;;;;;;;8.80;7.80;;;18.40;99.90;;;;;;5055055;28;20446;-76
2022/07/23 02:56:38;;;;;;;8.83;8.00;;;18.40;99.90;;;;;;5054943;28;20450;-76
2022/07/23 02:59:05;;;;;;;7.93;7.17;;;18.30;99.90;;;;;;5055044;28;20453;-76
2022/07/23 03:01:32;;;;;;;6.97;6.27;;;18.30;99.90;;;;;;5054965;28;20450;-76
2022/07/23 03:03:58;;;;;;;8.40;7.20;;;18.30;99.90;;;;;;5055046;28;20822;-76
2022/07/23 03:06:26;;;;;;;7.17;6.57;;;18.20;99.90;;;;;;5054886;28;20469;-76
2022/07/23 03:08:53;;;;;;;7.80;7.10;;;18.20;99.90;;;;;;5054791;28;20449;-77
2022/07/23 03:11:20;;;;;;;7.97;6.77;;;18.10;99.90;;;;;;5054123;28;20828;-76
2022/07/23 03:13:47;;;;;;;6.97;6.47;;;18.00;99.90;;;;;;5053934;28;20453;-76
2022/07/23 03:16:14;;;;;;;9.17;7.27;;;18.00;99.90;;;;;;5054293;28;20452;-77
2022/07/23 03:18:40;;;;;;;7.73;6.87;;;18.00;99.90;;;;;;5057147;28;20449;-76
2022/07/23 03:21:07;;;;;;;9.10;7.17;;;18.10;99.90;;;;;;5056918;28;20976;-76
2022/07/23 03:23:35;;;;;;;8.23;6.77;;;18.00;99.90;;;;;;5053975;28;20540;-76
2022/07/23 03:26:02;;;;;;;7.23;6.53;;;18.00;99.90;;;;;;5054116;28;20449;-76
2022/07/23 03:28:29;;;;;;;6.90;6.27;;;18.00;99.90;;;;;;5054057;28;20453;-77
2022/07/23 03:30:55;;;;;;;7.73;7.03;;;18.00;99.90;;;;;;5054466;28;20821;-76
2022/07/23 03:33:22;;;;;;;8.73;6.70;;;17.90;99.90;;;;;;5054164;28;20449;-76
2022/07/23 03:35:50;;;;;;;8.53;7.17;;;17.90;99.90;;;;;;5053929;28;20798;-77
2022/07/23 03:38:16;;;;;;;8.30;6.33;;;17.80;99.90;;;;;;5053845;28;20453;-77
2022/07/23 03:40:44;;;;;;;10.10;6.70;;;17.70;99.90;;;;;;5053850;28;20465;-77
2022/07/23 03:43:11;;;;;;;7.83;6.77;;;17.90;99.90;;;;;;5053483;28;20457;-76
2022/07/23 03:45:38;;;;;;;6.83;6.13;;;18.10;99.90;;;;;;5053303;28;20481;-77
2022/07/23 03:48:05;;;;;;;8.00;6.17;;;17.90;99.90;;;;;;5053947;28;20457;-76
2022/07/23 03:50:32;;;;;;;6.40;5.90;;;17.90;99.90;;;;;;5053504;28;20470;-76
2022/07/23 03:52:59;;;;;;;7.10;6.40;;;17.70;99.90;;;;;;5053759;28;20452;-77
2022/07/23 03:55:26;;;;;;;10.70;6.77;;;17.90;99.90;;;;;;5053557;28;20540;-76
2022/07/23 03:57:54;;;;;;;8.00;5.90;;;17.90;99.90;;;;;;5053338;28;20449;-76
2022/07/23 04:00:21;;;;;;;6.47;5.40;;;17.80;99.90;;;;;;5053158;28;20469;-76
2022/07/23 04:02:47;;;;;;;9.20;6.10;;;17.70;99.90;;;;;;5053309;28;20442;-76
2022/07/23 04:05:14;;;;;;;8.13;5.73;;;17.80;99.90;;;;;;5053291;28;20489;-76
2022/07/23 04:07:41;;;;;;;10.33;5.40;;;17.70;99.90;;;;;;5053081;28;20461;-76
2022/07/23 04:10:08;;;;;;;9.90;5.00;;;17.70;99.90;;;;;;5052959;28;20585;-76
2022/07/23 04:12:35;;;;;;;5.17;4.67;;;17.60;99.90;;;;;;5053446;28;20446;-76
2022/07/23 04:15:04;;;;;;;5.77;5.23;;;17.50;99.90;;;;;;5053318;28;20543;-76
2022/07/23 04:17:30;;;;;;;11.10;6.17;;;17.30;99.90;;;;;;5053330;28;20453;-76
2022/07/23 04:19:57;;;;;;;10.57;6.07;;;17.10;99.90;;;;;;5053163;28;20843;-76
2022/07/23 04:22:24;;;;;;;5.87;5.20;;;17.10;99.90;;;;;;5053306;28;20442;-77
2022/07/23 04:24:51;;;;;;;6.03;5.07;;;17.20;99.90;;;;;;5053334;28;20488;-76
2022/07/23 04:27:17;;;;;;;4.20;3.80;;;17.30;99.90;;;;;;5053197;28;20449;-76
2022/07/23 04:29:44;;;;;;;5.70;4.87;;;17.20;99.90;;;;;;5052897;28;20983;-76
2022/07/23 04:32:12;;;;;;;4.30;3.70;;;17.10;99.90;;;;;;5052693;28;20954;-76
2022/07/23 04:34:39;;;;;;;9.37;4.70;;;17.20;99.90;;;;;;5053027;28;20499;-76
2022/07/23 04:37:06;;;;;;;11.23;3.80;;;17.20;99.90;;;;;;5052891;28;20456;-76
2022/07/23 04:39:32;;;;;;;8.50;4.60;;;17.10;99.90;;;;;;5052944;28;20473;-76
2022/07/23 04:41:59;;;;;;;7.63;4.80;;;17.30;99.90;;;;;;5052765;28;20442;-76
2022/07/23 04:44:26;;;;;;;5.40;4.47;;;17.10;99.90;;;;;;5052443;28;20484;-77
2022/07/23 04:46:54;;;;;;;6.27;4.90;;;16.40;99.90;;;;;;5052394;28;20452;-77
2022/07/23 04:49:22;;;;;;;9.80;5.70;;;15.80;99.90;;;;;;5052657;28;20619;-77
2022/07/23 04:51:49;;;;;;;6.87;4.70;;;15.90;99.90;;;;;;5052896;28;20449;-77
2022/07/23 04:54:17;;;;;;;7.90;5.40;;;15.70;99.90;;;;;;5052873;28;20437;-77
2022/07/23 04:56:44;;;;;;;9.20;5.90;;;15.50;99.90;;;;;;5053964;28;20803;-77
2022/07/23 04:59:10;;;;;;;6.33;5.17;;;15.40;99.90;;;;;;5074026;28;20434;-76
2022/07/23 05:01:37;;;;;;;6.53;5.30;;;15.40;99.90;;;;;;5071455;28;20446;-76
2022/07/23 05:04:04;;;;;;;9.90;5.80;;;15.40;99.90;;;;;;5060697;28;20453;-77
2022/07/23 05:06:32;;;;;;;8.57;6.00;;;15.30;99.90;;;;;;5053292;28;20457;-77
2022/07/23 05:08:59;;;;;;;8.63;6.00;;;15.30;99.90;;;;;;5053644;28;20454;-77
2022/07/23 05:11:25;;;;;;;5.93;5.27;;;15.40;99.90;;;;;;5052544;28;20481;-77
2022/07/23 05:13:52;;;;;;;7.93;5.90;;;15.20;99.90;;;;;;5052718;28;20452;-77
2022/07/23 05:16:19;;;;;;;9.60;5.90;;;15.20;99.90;;;;;;5052583;28;20453;-77
2022/07/23 05:18:46;;;;;;;6.13;5.30;;;15.10;99.90;;;;;;5052318;28;20921;-77
2022/07/23 05:21:12;;;;;;;8.33;5.47;;;15.10;99.90;;;;;;5052495;28;20466;-77
2022/07/23 05:23:40;;;;;;;5.90;5.30;;;15.00;99.90;;;;;;5052268;28;20948;-77
2022/07/23 05:26:07;;;;;;;9.50;6.50;;;15.00;99.90;;;;;;5052167;28;20481;-77
2022/07/23 05:28:34;;;;;;;7.03;6.17;;;15.30;99.90;;;;;;5052453;28;20453;-77
2022/07/23 05:31:01;;;;;;;8.47;5.67;;;15.10;99.90;;;;;;5052419;28;20465;-77
2022/07/23 05:33:27;;;;;;;11.20;6.60;;;15.10;99.90;;;;;;5052225;28;20457;-77
2022/07/23 05:35:54;;;;;;;11.00;5.40;;;15.60;99.90;;;;;;5052414;28;20491;-77
2022/07/23 05:38:21;;;;;;;7.90;4.50;;;15.30;99.90;;;;;;5052513;28;20460;-77
2022/07/23 05:40:49;;;;;;;5.90;5.37;;;15.40;99.90;;;;;;5052488;28;20462;-77
2022/07/23 05:43:16;;;;;;;5.30;4.80;;;15.30;99.90;;;;;;5052497;28;20464;-77
2022/07/23 05:45:42;;;;;;;7.73;5.70;;;15.30;99.90;;;;;;5052271;28;20573;-77
2022/07/23 05:48:09;;;;;;;8.40;5.37;;;15.20;99.90;;;;;;5052569;28;20468;-77
2022/07/23 05:50:36;;;;;;;9.70;5.30;;;15.20;99.90;;;;;;5052197;28;20802;-77
2022/07/23 05:53:03;;;;;;;5.67;5.17;;;15.10;99.90;;;;;;5052007;28;20453;-77
2022/07/23 05:55:31;;;;;;;14.63;5.77;;;15.10;99.90;;;;;;5052213;28;20825;-77
2022/07/23 05:58:00;;;;;;;6.63;5.27;;;15.10;99.90;;;;;;5052054;28;21048;-77
2022/07/23 06:00:27;;;;;;;7.37;5.93;;;15.10;99.90;;;;;;5052305;28;20472;-77
2022/07/23 06:02:54;;;;;;;9.17;6.20;;;15.10;99.90;;;;;;5053170;28;20446;-77
2022/07/23 06:05:21;;;;;;;7.53;6.40;;;15.00;99.90;;;;;;5054028;28;20485;-76
2022/07/23 06:07:48;;;;;;;8.83;6.27;;;15.00;99.90;;;;;;5060173;28;20448;-77
2022/07/23 06:10:14;;;;;;;12.20;7.20;;;15.20;99.90;;;;;;5065483;28;20485;-77
2022/07/23 06:12:41;;;;;;;6.60;5.30;;;15.20;99.90;;;;;;5065118;28;20935;-77
2022/07/23 06:15:11;;;;;;;8.73;6.50;;;15.00;99.90;;;;;;5065391;28;20936;-78
2022/07/23 06:17:39;;;;;;;7.80;6.27;;;15.10;99.90;;;;;;5065970;28;20438;-78
2022/07/23 06:20:07;;;;;;;10.03;7.10;;;15.20;99.90;;;;;;5066750;28;20518;-78
2022/07/23 06:22:34;;;;;;;7.80;6.37;;;15.20;99.90;;;;;;5066215;28;20442;-77
2022/07/23 06:25:01;;;;;;;11.27;6.67;;;15.10;99.90;;;;;;5065594;28;20866;-78
2022/07/23 06:27:28;;;;;;;9.07;7.73;;;15.00;99.90;;;;;;5065705;28;20426;-78
2022/07/23 06:29:54;;;;;;;15.03;7.50;;;15.10;99.90;;;;;;5061585;28;20450;-78
2022/07/23 06:32:23;;;;;;;11.33;7.40;;;15.10;99.90;;;;;;5057745;28;20456;-78
2022/07/23 06:34:49;;;;;;;10.63;6.80;;;15.00;99.90;;;;;;5058039;28;20438;-78
2022/07/23 06:37:16;;;;;;;12.87;6.73;;;15.00;99.90;;;;;;5057125;28;20821;-78
2022/07/23 06:39:43;;;;;;;10.17;8.57;;;15.00;99.90;;;;;;5056437;28;20515;-78
2022/07/23 06:42:10;;;;;;;12.53;7.60;;;15.10;99.90;;;;;;5056794;28;20462;-78
2022/07/23 06:44:36;;;;;;;15.67;8.53;;;15.10;99.90;;;;;;5066070;28;20460;-78
2022/07/23 06:47:03;;;;;;;17.30;8.80;;;15.10;99.90;;;;;;5072787;28;20473;-77
2022/07/23 06:49:31;;;;;;;12.20;8.00;;;15.30;99.90;;;;;;5063085;28;20472;-78
2022/07/23 06:51:58;;;;;;;14.47;8.40;;;15.60;99.90;;;;;;5057127;28;20544;-77
2022/07/23 06:54:25;;;;;;;8.80;7.13;;;15.50;99.90;;;;;;5057277;28;20457;-78
2022/07/23 06:56:52;;;;;;;11.33;8.33;;;15.40;99.90;;;;;;5058591;28;20512;-78
2022/07/23 06:59:18;;;;;;;11.53;7.63;;;15.50;99.90;;;;;;5057511;28;20446;-78
2022/07/23 07:01:45;;;;;;;9.03;8.23;;;15.50;99.90;;;;;;5062039;28;20454;-76
2022/07/23 07:04:12;;;;;;;12.17;8.70;;;15.50;99.90;;;;;;5060548;28;20479;-77
2022/07/23 07:06:40;;;;;;;11.63;7.97;;;15.60;99.90;;;;;;5061589;28;20485;-76
2022/07/23 07:09:07;;;;;;;9.40;7.70;;;;;;;;;;5064166;28;20564;-75
2022/07/23 07:11:33;;;;;;;11.20;7.30;;;15.60;99.90;;;;;;5060317;28;20453;-77
2022/07/23 07:14:00;;;;;;;12.30;9.50;;;15.70;99.90;;;;;;5062035;28;20978;-78
2022/07/23 07:16:27;;;;;;;25.20;18.40;;;15.70;99.90;;;;;;5061459;28;20442;-78
2022/07/23 07:18:54;;;;;;;24.80;20.07;;;15.70;99.90;;;;;;5058286;28;20446;-77
2022/07/23 07:21:20;;;;;;;18.67;13.40;;;15.70;99.90;;;;;;5058747;28;20488;-77
2022/07/23 07:23:48;;;;;;;17.00;10.80;;;15.80;99.90;;;;;;5057058;28;20453;-77
2022/07/23 07:26:15;;;;;;;13.53;9.50;;;15.70;99.90;;;;;;5058219;28;20477;-76
2022/07/23 07:28:42;;;;;;;10.77;8.20;;;15.60;99.90;;;;;;5058690;28;20457;-77
2022/07/23 07:31:08;;;;;;;8.50;7.30;;;15.60;99.90;;;;;;5055082;28;20447;-77
2022/07/23 07:33:35;;;;;;;9.70;6.87;;;15.60;99.90;;;;;;5054610;28;20449;-77
2022/07/23 07:36:02;;;;;;;11.83;6.10;;;15.60;99.90;;;;;;5054667;28;20444;-77
2022/07/23 07:38:29;;;;;;;8.37;7.57;;;15.60;99.90;;;;;;5054448;28;20454;-77
2022/07/23 07:40:57;;;;;;;9.53;7.60;;;15.80;99.90;;;;;;5055134;28;20476;-77
2022/07/23 07:43:24;;;;;;;8.70;7.63;;;15.80;99.90;;;;;;5054384;28;20450;-78
2022/07/23 07:45:51;;;;;;;10.23;7.37;;;15.80;99.90;;;;;;5054376;28;20843;-77
2022/07/23 07:48:17;;;;;;;12.00;7.00;;;15.80;99.90;;;;;;5054479;28;20449;-77
2022/07/23 07:50:44;;;;;;;11.10;7.80;;;15.70;99.90;;;;;;5054879;28;20474;-77
2022/07/23 07:53:11;;;;;;;13.53;8.50;;;15.70;99.90;;;;;;5054364;28;20462;-77
2022/07/23 07:55:38;;;;;;;12.13;8.37;;;15.80;99.90;;;;;;5053853;28;20449;-77
2022/07/23 07:58:06;;;;;;;12.20;8.63;;;15.80;99.90;;;;;;5054183;28;20888;-77
2022/07/23 08:00:32;;;;;;;10.87;9.20;;;16.10;99.90;;;;;;5054522;28;20469;-77
2022/07/23 08:02:59;;;;;;;17.50;8.60;;;15.90;99.90;;;;;;5054287;28;20448;-78
2022/07/23 08:05:28;;;;;;;9.80;7.87;;;16.10;99.90;;;;;;5054711;28;20478;-77
2022/07/23 08:07:56;;;;;;;8.57;7.43;;;16.20;99.90;;;;;;5054436;28;20796;-78
2022/07/23 08:10:23;;;;;;;13.43;8.37;;;16.20;99.90;;;;;;5055176;28;20839;-78
2022/07/23 08:12:53;;;;;;;11.40;9.17;;;16.20;99.90;;;;;;5054955;28;20968;-78
2022/07/23 08:15:22;;;;;;;9.53;8.27;;;16.20;99.90;;;;;;5055318;28;20450;-78
2022/07/23 08:17:50;;;;;;;16.83;9.90;;;16.30;99.90;;;;;;5055160;28;20556;-78
2022/07/23 08:20:19;;;;;;;12.90;9.43;;;16.40;99.90;;;;;;5054132;28;20839;-78
2022/07/23 08:22:48;;;;;;;16.00;10.77;;;16.60;99.90;;;;;;5054107;28;20454;-77
2022/07/23 08:25:15;;;;;;;14.57;10.37;;;16.90;99.90;;;;;;5055497;28;21000;-77
2022/07/23 08:27:42;;;;;;;13.63;10.60;;;16.90;99.90;;;;;;5055861;28;20445;-79
2022/07/23 08:30:10;;;;;;;14.73;12.30;;;17.00;99.90;;;;;;5055147;28;20466;-77
2022/07/23 08:32:51;;;;;;;16.80;11.40;;;17.10;99.90;;;;;;5055322;28;20446;-78
2022/07/23 08:35:22;;;;;;;9.60;8.60;;;17.10;99.90;;;;;;5055310;28;20426;-77
2022/07/23 08:37:48;;;;;;;8.47;7.57;;;17.40;99.90;;;;;;5054280;28;20933;-77
2022/07/23 08:40:15;;;;;;;10.90;8.70;;;17.40;99.90;;;;;;5055210;28;20473;-77
2022/07/23 08:42:42;;;;;;;12.23;9.00;;;17.50;99.90;;;;;;5055288;28;20446;-78
2022/07/23 08:45:09;;;;;;;11.83;7.93;;;17.40;99.90;;;;;;5054527;28;20789;-78
2022/07/23 08:47:38;;;;;;;11.00;9.13;;;17.30;99.90;;;;;;5055032;28;20862;-77
2022/07/23 08:50:08;;;;;;;6.87;6.23;;;17.20;99.90;;;;;;5053736;28;20527;-77
2022/07/23 08:52:36;;;;;;;11.83;7.70;;;17.40;99.90;;;;;;5053254;28;20955;-77
2022/07/23 08:55:04;;;;;;;7.90;7.10;;;17.40;99.90;;;;;;5052844;28;20449;-77
2022/07/23 08:57:30;;;;;;;12.60;7.90;;;17.50;99.90;;;;;;5052757;28;20984;-77
2022/07/23 08:59:58;;;;;;;9.63;7.37;;;17.60;99.90;;;;;;5052657;28;20968;-77
2022/07/23 09:02:24;;;;;;;11.00;7.30;;;17.70;99.90;;;;;;5052864;28;20545;-77
2022/07/23 09:04:51;;;;;;;8.80;6.57;;;17.90;99.90;;;;;;5052631;28;20452;-77
2022/07/23 09:07:19;;;;;;;10.13;7.50;;;17.90;99.90;;;;;;5052881;28;20485;-77
2022/07/23 09:09:46;;;;;;;8.93;6.60;;;17.90;99.90;;;;;;5052462;28;20493;-77
2022/07/23 09:12:13;;;;;;;9.60;7.40;;;17.90;99.90;;;;;;5053437;28;20426;-77
2022/07/23 09:14:41;;;;;;;9.97;7.00;;;18.00;99.90;;;;;;5052801;28;20452;-77
2022/07/23 09:17:12;;;;;;;7.33;5.77;;;18.10;99.90;;;;;;5052663;28;20445;-77
2022/07/23 09:19:39;;;;;;;13.03;8.10;;;18.00;99.90;;;;;;5052615;28;20473;-77
2022/07/23 09:22:26;;;;;;;9.37;6.27;;;18.00;99.90;;;;;;5053081;28;20449;-79
2022/07/23 09:25:10;;;;;;;13.30;6.60;;;18.10;99.90;;;;;;5055714;28;20422;-77
2022/07/23 09:27:53;;;;;;;6.97;6.17;;;18.20;99.90;;;;;;5053424;28;20449;-77
2022/07/23 09:30:20;;;;;;;11.23;6.67;;;18.20;99.90;;;;;;5054694;28;20483;-78
2022/07/23 09:33:06;;;;;;;6.53;5.83;;;18.20;99.90;;;;;;5055320;28;20855;-79
2022/07/23 09:35:50;;;;;;;8.60;6.40;;;18.10;99.90;;;;;;5055009;28;20775;-77
2022/07/23 09:38:19;;;;;;;7.03;5.90;;;18.20;99.90;;;;;;5051840;28;20445;-76
2022/07/23 09:40:47;;;;;;;10.30;7.77;;;18.20;99.90;;;;;;5052582;28;20470;-77
2022/07/23 09:43:14;;;;;;;7.60;6.43;;;18.40;99.90;;;;;;5055940;28;20903;-77
2022/07/23 09:45:40;;;;;;;7.80;7.00;;;18.50;99.90;;;;;;5055829;28;20485;-77
2022/07/23 09:48:15;;;;;;;8.10;6.93;;;18.60;99.90;;;;;;5056361;28;20461;-77
2022/07/23 09:50:42;;;;;;;7.43;6.57;;;18.70;99.90;;;;;;5056714;28;20457;-76
2022/07/23 09:53:09;;;;;;;8.73;6.10;;;18.70;99.90;;;;;;5059211;28;20467;-76
2022/07/23 09:55:38;;;;;;;7.20;6.50;;;18.80;99.90;;;;;;5058432;28;20450;-77
2022/07/23 09:58:06;;;;;;;7.50;6.03;;;18.90;99.90;;;;;;5063390;28;20445;-77
2022/07/23 10:00:34;;;;;;;6.13;5.60;;;18.90;99.90;;;;;;5056793;28;20492;-77
2022/07/23 10:03:01;;;;;;;6.70;6.00;;;19.10;99.90;;;;;;5055967;28;20445;-77
2022/07/23 10:05:29;;;;;;;7.80;6.47;;;19.30;99.90;;;;;;5055352;28;20993;-77
2022/07/23 10:07:56;;;;;;;6.43;5.83;;;19.50;99.90;;;;;;5055692;28;20452;-77
2022/07/23 10:10:27;;;;;;;9.70;7.20;;;19.30;99.90;;;;;;5055099;28;20478;-77
2022/07/23 10:13:07;;;;;;;8.03;7.23;;;19.60;99.90;;;;;;5055368;28;20549;-77
2022/07/23 10:15:33;;;;;;;8.30;6.30;;;19.60;99.90;;;;;;5055952;28;20507;-77
2022/07/23 10:18:00;;;;;;;5.70;5.20;;;19.60;99.90;;;;;;5057991;28;20964;-77
2022/07/23 10:20:27;;;;;;;7.47;6.73;;;19.50;99.90;;;;;;5056080;28;20466;-77
2022/07/23 10:23:02;;;;;;;8.50;6.00;;;19.70;99.90;;;;;;5055481;28;20529;-77
2022/07/23 10:25:37;;;;;;;13.80;6.07;;;19.80;99.90;;;;;;5055132;28;20800;-77
2022/07/23 10:28:22;;;;;;;8.83;6.60;;;19.80;99.90;;;;;;5054661;28;20433;-77
2022/07/23 10:30:56;;;;;;;7.70;5.33;;;20.00;99.90;;;;;;5055848;28;20868;-77
2022/07/23 10:33:33;;;;;;;6.20;5.30;;;20.00;99.90;;;;;;5056040;28;20430;-77
2022/07/23 10:36:04;;;;;;;6.77;5.90;;;20.20;99.90;;;;;;5055492;28;20464;-77
2022/07/23 10:38:38;;;;;;;6.13;5.43;;;20.40;99.90;;;;;;5055210;28;20445;-77
2022/07/23 10:41:06;;;;;;;5.50;5.00;;;20.40;99.90;;;;;;5055716;28;20465;-77
2022/07/23 10:43:34;;;;;;;5.93;5.40;;;20.60;99.90;;;;;;5055270;28;20798;-78
2022/07/23 10:46:22;;;;;;;9.10;5.07;;;20.70;99.90;;;;;;5054640;28;20883;-77
2022/07/23 10:49:25;;;;;;;5.63;4.97;;;20.70;99.90;;;;;;5054602;28;20427;-78
2022/07/23 10:52:21;;;;;;;5.90;5.40;;;20.70;99.90;;;;;;5054416;28;20449;-78
2022/07/23 10:54:50;;;;;;;6.60;4.87;;;20.80;99.90;;;;;;5055074;28;20445;-76
2022/07/23 10:57:18;;;;;;;6.90;4.63;;;20.60;99.90;;;;;;5054683;28;20553;-77
2022/07/23 11:00:24;;;;;;;8.13;5.63;;;20.60;99.90;;;;;;5054574;28;20472;-76
2022/07/23 11:02:54;;;;;;;10.33;5.10;;;20.60;99.90;;;;;;5047372;28;20987;-77
2022/07/23 11:05:22;;;;;;;6.77;5.07;;;20.70;99.90;;;;;;5054671;28;20453;-76
2022/07/23 11:08:14;;;;;;;7.40;5.33;;;20.90;99.90;;;;;;5054123;28;20492;-77
2022/07/23 11:10:42;;;;;;;4.80;4.40;;;21.20;99.90;;;;;;5053872;28;21028;-78
2022/07/23 11:13:38;;;;;;;5.23;4.63;;;21.30;99.90;;;;;;5055106;28;20441;-78
2022/07/23 11:16:25;;;;;;;6.10;5.50;;;21.00;99.90;;;;;;5055639;28;20521;-76
2022/07/23 11:19:08;;;;;;;4.40;4.00;;;21.20;99.90;;;;;;5054372;28;20540;-78
2022/07/23 11:21:48;;;;;;;4.90;4.50;;;21.10;99.90;;;;;;5054250;28;20461;-78
2022/07/23 11:24:18;;;;;;;5.57;5.07;;;21.20;99.90;;;;;;5054526;28;20430;-77
2022/07/23 11:26:48;;;;;;;6.90;4.70;;;21.50;99.90;;;;;;5053964;28;20500;-77
2022/07/23 11:29:47;;;;;;;5.47;4.93;;;21.70;99.90;;;;;;5053994;28;20449;-78
2022/07/23 11:32:39;;;;;;;5.37;4.73;;;21.30;99.90;;;;;;5055012;28;20457;-77
2022/07/23 11:35:25;;;;;;;5.77;4.60;;;21.40;99.90;;;;;;5053625;28;20437;-77
2022/07/23 11:37:58;;;;;;;6.53;4.73;;;21.30;99.90;;;;;;5053581;28;20466;-77
2022/07/23 11:40:25;;;;;;;5.57;4.97;;;21.30;99.90;;;;;;5053884;28;20543;-77
2022/07/23 11:42:57;;;;;;;5.10;4.63;;;21.20;99.90;;;;;;5054223;28;20452;-78
2022/07/23 11:45:25;;;;;;;5.87;4.80;;;21.20;99.90;;;;;;5055159;28;20943;-77
2022/07/23 11:47:52;;;;;;;6.30;4.90;;;21.10;99.90;;;;;;5056678;28;20545;-78
2022/07/23 11:50:18;;;;;;;7.47;5.30;;;21.20;99.90;;;;;;5057520;28;20462;-77
2022/07/23 11:52:46;;;;;;;6.00;4.80;;;21.40;99.90;;;;;;5065990;28;20449;-77
2022/07/23 11:55:16;;;;;;;5.93;5.30;;;21.50;99.90;;;;;;5063094;28;20446;-77
2022/07/23 11:57:44;;;;;;;5.33;4.93;;;21.70;99.90;;;;;;5055461;28;20476;-78
2022/07/23 12:00:12;;;;;;;5.63;4.57;;;21.80;99.90;;;;;;5054806;28;20488;-78
2022/07/23 12:02:39;;;;;;;4.80;4.40;;;22.00;99.90;;;;;;5054480;28;20446;-77
2022/07/23 12:05:09;;;;;;;5.90;4.83;;;22.20;99.90;;;;;;5054120;28;20453;-77
2022/07/23 12:07:38;;;;;;;7.50;5.70;;;22.40;99.90;;;;;;5054353;28;20585;-77
2022/07/23 12:10:15;;;;;;;6.53;4.93;;;22.60;99.90;;;;;;5079600;22;20799;-78
2022/07/23 12:12:44;;;;;;;4.87;4.47;;;22.70;99.90;;;;;;5059475;28;20501;-78
2022/07/23 12:15:13;;;;;;;5.30;4.80;;;22.80;99.90;;;;;;5061043;28;20452;-78
2022/07/23 12:17:42;;;;;;;5.57;5.07;;;22.70;99.90;;;;;;5059349;28;20814;-78
2022/07/23 12:20:13;;;;;;;8.43;5.40;;;22.60;99.90;;;;;;5057539;28;20508;-78
2022/07/23 12:22:41;;;;;;;5.27;4.60;;;22.50;99.90;;;;;;5056797;28;20441;-78
2022/07/23 12:25:12;;;;;;;5.80;5.30;;;22.60;99.90;;;;;;5056565;28;20437;-77
2022/07/23 12:27:39;;;;;;;4.90;4.50;;;22.60;99.90;;;;;;5056694;28;21024;-78
2022/07/23 12:30:24;;;;;;;5.60;4.80;;;22.60;99.90;;;;;;5056188;28;20519;-78
2022/07/23 12:32:53;;;;;;;4.53;4.13;;;22.40;99.90;;;;;;5057352;28;20461;-79
2022/07/23 12:35:21;;;;;;;7.73;5.03;;;22.40;99.90;;;;;;5057002;28;20540;-79
2022/07/23 12:37:49;;;;;;;7.13;5.37;;;22.30;99.90;;;;;;5057113;28;20446;-79
2022/07/23 12:40:25;;;;;;;5.70;4.50;;;22.10;99.90;;;;;;5057327;28;20549;-79
2022/07/23 12:42:55;;;;;;;5.17;4.53;;;22.20;99.90;;;;;;5056787;28;20434;-77
2022/07/23 12:45:22;;;;;;;7.30;4.93;;;22.30;99.90;;;;;;5058052;28;20445;-78
2022/07/23 12:48:01;;;;;;;7.47;4.57;;;22.30;99.90;;;;;;5055702;28;20475;-77
2022/07/23 12:50:39;;;;;;;5.53;4.87;;;22.10;99.90;;;;;;5056217;28;20553;-77
2022/07/23 12:53:09;;;;;;;5.47;4.47;;;22.10;99.90;;;;;;5056918;28;20794;-78
2022/07/23 12:55:39;;;;;;;10.00;5.73;;;22.30;99.90;;;;;;5056663;28;20448;-78